sensor_id;sensor_type;location;lat;lon;timestamp;pressure;altitude;pressure_sealevel;temperature;humidity
68193;BME280;55012;47.562;18.414;2023-06-22T00:02:14;99069.19;;;24.45;100.00
68193;BME280;55012;47.562;18.414;2023-06-22T00:04:39;99081.00;;;24.45;100.00
68193;BME280;55012;47.562;18.414;2023-06-22T00:07:05;99087.31;;;24.33;100.00
68193;BME280;55012;47.562;18.414;2023-06-22T00:09:31;99071.13;;;24.31;100.00
68193;BME280;55012;47.562;18.414;2023-06-22T00:11:56;99075.69;;;24.38;100.00
68193;BME280;55012;47.562;18.414;2023-06-22T00:14:22;99082.69;;;24.43;100.00
68193;BME280;55012;47.562;18.414;2023-06-22T00:16:47;99087.75;;;24.44;100.00
68193;BME280;55012;47.562;18.414;2023-06-22T00:19:15;99092.06;;;24.45;100.00
68193;BME280;55012;47.562;18.414;2023-06-22T00:21:40;99087.00;;;24.44;100.00
68193;BME280;55012;47.562;18.414;2023-06-22T00:24:06;99089.97;;;24.49;100.00
68193;BME280;55012;47.562;18.414;2023-06-22T00:26:31;99094.50;;;24.56;100.00
68193;BME280;55012;47.562;18.414;2023-06-22T00:28:57;99086.66;;;24.54;100.00
68193;BME280;55012;47.562;18.414;2023-06-22T00:31:22;99086.00;;;24.50;100.00
68193;BME280;55012;47.562;18.414;2023-06-22T00:33:48;99083.66;;;24.49;100.00
68193;BME280;55012;47.562;18.414;2023-06-22T00:36:16;99084.44;;;24.49;100.00
68193;BME280;55012;47.562;18.414;2023-06-22T00:38:43;99076.72;;;24.44;100.00
68193;BME280;55012;47.562;18.414;2023-06-22T00:41:08;99066.19;;;24.39;100.00
68193;BME280;55012;47.562;18.414;2023-06-22T00:43:34;99065.09;;;24.36;100.00
68193;BME280;55012;47.562;18.414;2023-06-22T00:45:59;99053.59;;;24.38;100.00
68193;BME280;55012;47.562;18.414;2023-06-22T00:48:25;99060.00;;;24.35;100.00
68193;BME280;55012;47.562;18.414;2023-06-22T00:50:51;99055.75;;;24.30;100.00
68193;BME280;55012;47.562;18.414;2023-06-22T00:53:19;99058.66;;;24.27;100.00
68193;BME280;55012;47.562;18.414;2023-06-22T00:55:45;99048.03;;;24.25;100.00
68193;BME280;55012;47.562;18.414;2023-06-22T00:58:17;99050.44;;;24.23;100.00
68193;BME280;55012;47.562;18.414;2023-06-22T01:00:42;99040.59;;;24.22;100.00
68193;BME280;55012;47.562;18.414;2023-06-22T01:03:08;99033.97;;;24.20;100.00
68193;BME280;55012;47.562;18.414;2023-06-22T01:05:34;99041.06;;;24.08;100.00
68193;BME280;55012;47.562;18.414;2023-06-22T01:11:16;99018.47;;;23.42;100.00
68193;BME280;55012;47.562;18.414;2023-06-22T01:13:50;98993.03;;;23.06;100.00
68193;BME280;55012;47.562;18.414;2023-06-22T01:16:24;98948.50;;;22.91;100.00
68193;BME280;55012;47.562;18.414;2023-06-22T01:18:52;98927.06;;;23.11;100.00
68193;BME280;55012;47.562;18.414;2023-06-22T01:21:21;98942.00;;;23.26;100.00
68193;BME280;55012;47.562;18.414;2023-06-22T01:24:26;98943.69;;;23.37;100.00
68193;BME280;55012;47.562;18.414;2023-06-22T01:29:52;98958.00;;;23.61;100.00
68193;BME280;55012;47.562;18.414;2023-06-22T01:32:25;98964.88;;;23.69;100.00
68193;BME280;55012;47.562;18.414;2023-06-22T01:34:52;98972.28;;;23.72;100.00
68193;BME280;55012;47.562;18.414;2023-06-22T01:37:18;98971.81;;;23.73;100.00
68193;BME280;55012;47.562;18.414;2023-06-22T01:39:44;98978.34;;;23.79;100.00
68193;BME280;55012;47.562;18.414;2023-06-22T01:42:10;98993.38;;;23.91;100.00
68193;BME280;55012;47.562;18.414;2023-06-22T01:44:36;99002.47;;;24.04;100.00
68193;BME280;55012;47.562;18.414;2023-06-22T01:47:03;99021.47;;;24.15;100.00
68193;BME280;55012;47.562;18.414;2023-06-22T01:49:29;99027.00;;;24.15;100.00
68193;BME280;55012;47.562;18.414;2023-06-22T01:51:55;99029.22;;;24.07;100.00
68193;BME280;55012;47.562;18.414;2023-06-22T01:54:21;99025.69;;;24.07;100.00
68193;BME280;55012;47.562;18.414;2023-06-22T01:56:46;99028.78;;;24.09;100.00
68193;BME280;55012;47.562;18.414;2023-06-22T01:59:15;99032.31;;;24.09;100.00
68193;BME280;55012;47.562;18.414;2023-06-22T02:01:51;99034.75;;;24.07;100.00
68193;BME280;55012;47.562;18.414;2023-06-22T02:04:23;99028.31;;;23.98;100.00
68193;BME280;55012;47.562;18.414;2023-06-22T02:06:55;99039.00;;;23.83;100.00
68193;BME280;55012;47.562;18.414;2023-06-22T02:09:22;99030.91;;;23.63;100.00
68193;BME280;55012;47.562;18.414;2023-06-22T02:11:50;99026.75;;;23.42;100.00
68193;BME280;55012;47.562;18.414;2023-06-22T02:14:21;99008.66;;;23.25;100.00
68193;BME280;55012;47.562;18.414;2023-06-22T02:16:47;99000.97;;;23.04;100.00
68193;BME280;55012;47.562;18.414;2023-06-22T02:19:12;98976.53;;;22.89;100.00
68193;BME280;55012;47.562;18.414;2023-06-22T02:21:40;98975.22;;;22.78;100.00
68193;BME280;55012;47.562;18.414;2023-06-22T02:24:06;98965.66;;;22.66;100.00
68193;BME280;55012;47.562;18.414;2023-06-22T02:26:32;98958.44;;;22.56;100.00
68193;BME280;55012;47.562;18.414;2023-06-22T02:28:58;98944.00;;;22.35;100.00
68193;BME280;55012;47.562;18.414;2023-06-22T02:31:23;98924.34;;;22.17;100.00
68193;BME280;55012;47.562;18.414;2023-06-22T02:33:57;98906.06;;;21.91;100.00
68193;BME280;55012;47.562;18.414;2023-06-22T02:36:23;98875.69;;;21.78;100.00
68193;BME280;55012;47.562;18.414;2023-06-22T02:38:50;98829.31;;;22.09;100.00
68193;BME280;55012;47.562;18.414;2023-06-22T02:41:16;98855.72;;;22.68;100.00
68193;BME280;55012;47.562;18.414;2023-06-22T02:43:46;98901.84;;;22.96;100.00
68193;BME280;55012;47.562;18.414;2023-06-22T02:46:13;98930.97;;;22.97;100.00
68193;BME280;55012;47.562;18.414;2023-06-22T02:48:39;98929.69;;;23.02;100.00
68193;BME280;55012;47.562;18.414;2023-06-22T02:51:05;98935.44;;;23.08;100.00
68193;BME280;55012;47.562;18.414;2023-06-22T02:53:30;98943.69;;;23.08;100.00
68193;BME280;55012;47.562;18.414;2023-06-22T02:55:56;98940.75;;;23.15;100.00
68193;BME280;55012;47.562;18.414;2023-06-22T02:58:22;98933.25;;;23.15;100.00
68193;BME280;55012;47.562;18.414;2023-06-22T03:00:47;98932.38;;;23.18;100.00
68193;BME280;55012;47.562;18.414;2023-06-22T03:03:13;98924.25;;;23.27;100.00
68193;BME280;55012;47.562;18.414;2023-06-22T03:05:38;98937.47;;;23.20;100.00
68193;BME280;55012;47.562;18.414;2023-06-22T03:08:05;98925.56;;;22.94;100.00
68193;BME280;55012;47.562;18.414;2023-06-22T03:10:30;98913.28;;;22.66;100.00
68193;BME280;55012;47.562;18.414;2023-06-22T03:12:56;98897.91;;;22.36;100.00
68193;BME280;55012;47.562;18.414;2023-06-22T03:15:21;98876.06;;;22.12;100.00
68193;BME280;55012;47.562;18.414;2023-06-22T03:17:47;98833.06;;;21.99;100.00
68193;BME280;55012;47.562;18.414;2023-06-22T03:20:12;98792.97;;;22.14;100.00
68193;BME280;55012;47.562;18.414;2023-06-22T03:22:39;98780.56;;;22.51;100.00
68193;BME280;55012;47.562;18.414;2023-06-22T03:25:05;98819.09;;;22.96;100.00
68193;BME280;55012;47.562;18.414;2023-06-22T03:27:39;98859.78;;;23.34;100.00
68193;BME280;55012;47.562;18.414;2023-06-22T03:30:06;98897.78;;;23.55;100.00
68193;BME280;55012;47.562;18.414;2023-06-22T03:32:32;98913.16;;;23.69;100.00
68193;BME280;55012;47.562;18.414;2023-06-22T03:34:57;98924.53;;;23.71;100.00
68193;BME280;55012;47.562;18.414;2023-06-22T03:37:27;98936.25;;;23.63;100.00
68193;BME280;55012;47.562;18.414;2023-06-22T03:39:53;98930.56;;;23.53;100.00
68193;BME280;55012;47.562;18.414;2023-06-22T03:42:19;98921.06;;;23.54;100.00
68193;BME280;55012;47.562;18.414;2023-06-22T03:44:44;98929.84;;;23.66;100.00
68193;BME280;55012;47.562;18.414;2023-06-22T03:47:10;98947.97;;;23.79;100.00
68193;BME280;55012;47.562;18.414;2023-06-22T03:49:36;98953.38;;;23.83;100.00
68193;BME280;55012;47.562;18.414;2023-06-22T03:52:02;98966.78;;;23.85;100.00
68193;BME280;55012;47.562;18.414;2023-06-22T03:54:29;98978.91;;;23.87;100.00
68193;BME280;55012;47.562;18.414;2023-06-22T03:56:56;98980.47;;;23.88;100.00
68193;BME280;55012;47.562;18.414;2023-06-22T03:59:21;98980.47;;;23.88;100.00
68193;BME280;55012;47.562;18.414;2023-06-22T04:01:47;98980.91;;;23.87;100.00
68193;BME280;55012;47.562;18.414;2023-06-22T04:04:12;98984.00;;;23.89;100.00
68193;BME280;55012;47.562;18.414;2023-06-22T04:06:38;98978.81;;;23.91;100.00
68193;BME280;55012;47.562;18.414;2023-06-22T04:09:03;98984.78;;;23.89;100.00
68193;BME280;55012;47.562;18.414;2023-06-22T04:11:28;98992.28;;;23.89;100.00
68193;BME280;55012;47.562;18.414;2023-06-22T04:13:54;98991.19;;;23.86;100.00
68193;BME280;55012;47.562;18.414;2023-06-22T04:16:19;98986.41;;;23.74;100.00
68193;BME280;55012;47.562;18.414;2023-06-22T04:18:45;98988.44;;;23.57;100.00
68193;BME280;55012;47.562;18.414;2023-06-22T04:21:10;98972.94;;;23.34;100.00
68193;BME280;55012;47.562;18.414;2023-06-22T04:23:36;98956.66;;;23.11;100.00
68193;BME280;55012;47.562;18.414;2023-06-22T04:26:01;98938.63;;;23.06;100.00
68193;BME280;55012;47.562;18.414;2023-06-22T04:28:26;98936.88;;;23.12;100.00
68193;BME280;55012;47.562;18.414;2023-06-22T04:30:52;98938.41;;;23.01;100.00
68193;BME280;55012;47.562;18.414;2023-06-22T04:33:17;98936.78;;;22.87;100.00
68193;BME280;55012;47.562;18.414;2023-06-22T04:35:46;98929.19;;;22.75;100.00
68193;BME280;55012;47.562;18.414;2023-06-22T04:38:12;98924.47;;;22.59;100.00
68193;BME280;55012;47.562;18.414;2023-06-22T04:40:41;98900.56;;;22.39;100.00
68193;BME280;55012;47.562;18.414;2023-06-22T04:43:06;98872.09;;;22.30;100.00
68193;BME280;55012;47.562;18.414;2023-06-22T04:45:33;98849.97;;;22.17;100.00
68193;BME280;55012;47.562;18.414;2023-06-22T04:47:58;98818.63;;;21.95;100.00
68193;BME280;55012;47.562;18.414;2023-06-22T04:50:24;98771.56;;;21.73;100.00
68193;BME280;55012;47.562;18.414;2023-06-22T04:52:50;98728.75;;;21.55;100.00
68193;BME280;55012;47.562;18.414;2023-06-22T04:55:16;98704.16;;;21.48;100.00
68193;BME280;55012;47.562;18.414;2023-06-22T04:57:48;98679.19;;;21.55;100.00
68193;BME280;55012;47.562;18.414;2023-06-22T05:00:23;98679.84;;;21.76;100.00
68193;BME280;55012;47.562;18.414;2023-06-22T05:02:49;98684.13;;;21.93;100.00
68193;BME280;55012;47.562;18.414;2023-06-22T05:05:15;98692.16;;;22.00;100.00
68193;BME280;55012;47.562;18.414;2023-06-22T05:07:45;98715.66;;;22.05;100.00
68193;BME280;55012;47.562;18.414;2023-06-22T05:10:14;98717.06;;;21.97;100.00
68193;BME280;55012;47.562;18.414;2023-06-22T05:12:40;98707.56;;;21.85;100.00
68193;BME280;55012;47.562;18.414;2023-06-22T05:15:07;98691.28;;;21.74;100.00
68193;BME280;55012;47.562;18.414;2023-06-22T05:17:34;98674.69;;;21.78;100.00
68193;BME280;55012;47.562;18.414;2023-06-22T05:20:00;98690.66;;;21.83;100.00
68193;BME280;55012;47.562;18.414;2023-06-22T05:22:25;98688.06;;;21.92;100.00
68193;BME280;55012;47.562;18.414;2023-06-22T05:24:51;98697.34;;;21.98;100.00
68193;BME280;55012;47.562;18.414;2023-06-22T05:27:16;98706.03;;;22.13;100.00
68193;BME280;55012;47.562;18.414;2023-06-22T05:29:42;98716.13;;;22.32;100.00
68193;BME280;55012;47.562;18.414;2023-06-22T05:32:08;98742.00;;;22.51;100.00
68193;BME280;55012;47.562;18.414;2023-06-22T05:34:33;98766.47;;;22.62;100.00
68193;BME280;55012;47.562;18.414;2023-06-22T05:36:59;98788.81;;;22.80;100.00
68193;BME280;55012;47.562;18.414;2023-06-22T05:39:25;98811.84;;;23.03;100.00
68193;BME280;55012;47.562;18.414;2023-06-22T05:41:53;98832.94;;;23.22;100.00
68193;BME280;55012;47.562;18.414;2023-06-22T05:44:19;98856.47;;;23.39;100.00
68193;BME280;55012;47.562;18.414;2023-06-22T05:46:45;98883.47;;;23.61;100.00
68193;BME280;55012;47.562;18.414;2023-06-22T05:49:12;98897.25;;;23.73;100.00
68193;BME280;55012;47.562;18.414;2023-06-22T05:51:38;98898.78;;;23.74;100.00
68193;BME280;55012;47.562;18.414;2023-06-22T05:54:03;98918.69;;;23.82;100.00
68193;BME280;55012;47.562;18.414;2023-06-22T05:56:29;98919.69;;;23.88;100.00
68193;BME280;55012;47.562;18.414;2023-06-22T05:58:54;98919.69;;;23.88;100.00
68193;BME280;55012;47.562;18.414;2023-06-22T06:01:20;98930.50;;;23.95;100.00
68193;BME280;55012;47.562;18.414;2023-06-22T06:03:45;98924.00;;;23.89;100.00
68193;BME280;55012;47.562;18.414;2023-06-22T06:06:11;98928.97;;;23.94;100.00
68193;BME280;55012;47.562;18.414;2023-06-22T06:08:38;98921.56;;;23.91;100.00
68193;BME280;55012;47.562;18.414;2023-06-22T06:11:04;98927.53;;;24.02;100.00
68193;BME280;55012;47.562;18.414;2023-06-22T06:13:29;98931.28;;;24.08;100.00
68193;BME280;55012;47.562;18.414;2023-06-22T06:15:56;98946.75;;;24.19;100.00
68193;BME280;55012;47.562;18.414;2023-06-22T06:18:22;98952.97;;;24.35;100.00
68193;BME280;55012;47.562;18.414;2023-06-22T06:20:48;98962.53;;;24.56;100.00
68193;BME280;55012;47.562;18.414;2023-06-22T06:23:14;98970.66;;;24.73;100.00
68193;BME280;55012;47.562;18.414;2023-06-22T06:25:39;98979.81;;;24.82;100.00
68193;BME280;55012;47.562;18.414;2023-06-22T06:28:04;98980.34;;;24.90;100.00
68193;BME280;55012;47.562;18.414;2023-06-22T06:30:30;98990.41;;;24.97;100.00
68193;BME280;55012;47.562;18.414;2023-06-22T06:32:55;98997.84;;;25.00;100.00
68193;BME280;55012;47.562;18.414;2023-06-22T06:35:21;99001.59;;;25.06;100.00
68193;BME280;55012;47.562;18.414;2023-06-22T06:37:49;99011.31;;;25.10;100.00
68193;BME280;55012;47.562;18.414;2023-06-22T06:40:15;99011.94;;;25.14;100.00
68193;BME280;55012;47.562;18.414;2023-06-22T06:42:45;99005.19;;;25.15;100.00
68193;BME280;55012;47.562;18.414;2023-06-22T06:45:16;99001.84;;;25.20;100.00
68193;BME280;55012;47.562;18.414;2023-06-22T06:47:42;99009.25;;;25.24;100.00
68193;BME280;55012;47.562;18.414;2023-06-22T06:50:09;99004.84;;;25.26;100.00
68193;BME280;55012;47.562;18.414;2023-06-22T06:52:35;99009.16;;;25.27;100.00
68193;BME280;55012;47.562;18.414;2023-06-22T06:55:01;99020.09;;;25.31;100.00
68193;BME280;55012;47.562;18.414;2023-06-22T06:57:26;99025.97;;;25.33;100.00
68193;BME280;55012;47.562;18.414;2023-06-22T06:59:56;99042.44;;;25.36;100.00
68193;BME280;55012;47.562;18.414;2023-06-22T07:02:22;99049.06;;;25.39;100.00
68193;BME280;55012;47.562;18.414;2023-06-22T07:04:47;99055.25;;;25.43;100.00
68193;BME280;55012;47.562;18.414;2023-06-22T07:07:13;99057.00;;;25.49;100.00
68193;BME280;55012;47.562;18.414;2023-06-22T07:09:39;98972.34;;;25.48;100.00
68193;BME280;55012;47.562;18.414;2023-06-22T07:12:05;98974.69;;;25.50;100.00
68193;BME280;55012;47.562;18.414;2023-06-22T07:14:30;98971.47;;;25.52;100.00
68193;BME280;55012;47.562;18.414;2023-06-22T07:16:57;98971.00;;;25.53;100.00
68193;BME280;55012;47.562;18.414;2023-06-22T07:19:26;98941.00;;;25.52;100.00
68193;BME280;55012;47.562;18.414;2023-06-22T07:21:53;98971.66;;;25.57;100.00
68193;BME280;55012;47.562;18.414;2023-06-22T07:24:22;98894.72;;;25.61;100.00
68193;BME280;55012;47.562;18.414;2023-06-22T07:26:48;98883.63;;;25.61;100.00
68193;BME280;55012;47.562;18.414;2023-06-22T07:29:16;98872.09;;;25.63;100.00
68193;BME280;55012;47.562;18.414;2023-06-22T07:31:42;98869.97;;;25.67;100.00
68193;BME280;55012;47.562;18.414;2023-06-22T07:34:07;98922.28;;;25.65;100.00
68193;BME280;55012;47.562;18.414;2023-06-22T07:36:33;98926.28;;;25.64;100.00
68193;BME280;55012;47.562;18.414;2023-06-22T07:39:01;98918.31;;;25.66;100.00
68193;BME280;55012;47.562;18.414;2023-06-22T07:41:26;98915.06;;;25.67;100.00
68193;BME280;55012;47.562;18.414;2023-06-22T07:43:51;98915.06;;;25.67;100.00
68193;BME280;55012;47.562;18.414;2023-06-22T07:46:17;98909.53;;;25.67;100.00
68193;BME280;55012;47.562;18.414;2023-06-22T07:48:42;98909.84;;;25.69;100.00
68193;BME280;55012;47.562;18.414;2023-06-22T07:51:09;98912.06;;;25.74;100.00
68193;BME280;55012;47.562;18.414;2023-06-22T07:53:34;98906.19;;;25.72;100.00
68193;BME280;55012;47.562;18.414;2023-06-22T07:56:01;98906.19;;;25.72;100.00
68193;BME280;55012;47.562;18.414;2023-06-22T07:58:32;98895.09;;;25.72;100.00
68193;BME280;55012;47.562;18.414;2023-06-22T08:00:57;98902.63;;;25.72;100.00
68193;BME280;55012;47.562;18.414;2023-06-22T08:03:23;98900.22;;;25.74;100.00
68193;BME280;55012;47.562;18.414;2023-06-22T08:05:48;98895.28;;;25.78;100.00
68193;BME280;55012;47.562;18.414;2023-06-22T08:08:14;98897.00;;;25.85;100.00
68193;BME280;55012;47.562;18.414;2023-06-22T08:10:39;98890.22;;;25.86;100.00
68193;BME280;55012;47.562;18.414;2023-06-22T08:13:06;98883.75;;;25.89;100.00
68193;BME280;55012;47.562;18.414;2023-06-22T08:15:31;98880.56;;;25.90;100.00
68193;BME280;55012;47.562;18.414;2023-06-22T08:17:57;98878.25;;;25.98;100.00
68193;BME280;55012;47.562;18.414;2023-06-22T08:20:23;98886.59;;;26.07;100.00
68193;BME280;55012;47.562;18.414;2023-06-22T08:22:48;98899.72;;;26.16;100.00
68193;BME280;55012;47.562;18.414;2023-06-22T08:25:14;98900.78;;;26.09;100.00
68193;BME280;55012;47.562;18.414;2023-06-22T08:27:39;98901.25;;;26.17;100.00
68193;BME280;55012;47.562;18.414;2023-06-22T08:30:06;98899.84;;;26.12;100.00
68193;BME280;55012;47.562;18.414;2023-06-22T08:32:32;98896.97;;;26.25;100.00
68193;BME280;55012;47.562;18.414;2023-06-22T08:34:58;98904.94;;;26.14;100.00
68193;BME280;55012;47.562;18.414;2023-06-22T08:37:24;98902.16;;;26.14;100.00
68193;BME280;55012;47.562;18.414;2023-06-22T08:39:59;98902.00;;;26.08;100.00
68193;BME280;55012;47.562;18.414;2023-06-22T08:42:26;98895.22;;;26.09;100.00
68193;BME280;55012;47.562;18.414;2023-06-22T08:44:52;98901.84;;;26.12;100.00
68193;BME280;55012;47.562;18.414;2023-06-22T08:47:18;98897.38;;;26.14;100.00
68193;BME280;55012;47.562;18.414;2023-06-22T08:49:43;98889.25;;;26.20;100.00
68193;BME280;55012;47.562;18.414;2023-06-22T08:52:09;98890.03;;;26.29;100.00
68193;BME280;55012;47.562;18.414;2023-06-22T08:54:34;98893.16;;;26.41;100.00
68193;BME280;55012;47.562;18.414;2023-06-22T08:57:00;98864.03;;;26.54;100.00
68193;BME280;55012;47.562;18.414;2023-06-22T08:59:26;98871.56;;;26.63;100.00
68193;BME280;55012;47.562;18.414;2023-06-22T09:01:54;98866.19;;;26.78;100.00
68193;BME280;55012;47.562;18.414;2023-06-22T09:04:20;98800.00;;;26.95;100.00
68193;BME280;55012;47.562;18.414;2023-06-22T09:06:50;98715.81;;;26.98;100.00
68193;BME280;55012;47.562;18.414;2023-06-22T09:09:17;98724.78;;;26.83;100.00
68193;BME280;55012;47.562;18.414;2023-06-22T09:11:43;98706.78;;;26.70;100.00
68193;BME280;55012;47.562;18.414;2023-06-22T09:14:10;98745.69;;;26.51;100.00
68193;BME280;55012;47.562;18.414;2023-06-22T09:16:36;98810.25;;;26.43;100.00
68193;BME280;55012;47.562;18.414;2023-06-22T09:19:02;98825.34;;;26.51;100.00
68193;BME280;55012;47.562;18.414;2023-06-22T09:21:27;98838.75;;;26.71;100.00
68193;BME280;55012;47.562;18.414;2023-06-22T09:23:53;98838.75;;;26.62;100.00
68193;BME280;55012;47.562;18.414;2023-06-22T09:26:19;98823.19;;;26.55;100.00
68193;BME280;55012;47.562;18.414;2023-06-22T09:28:44;98824.28;;;26.57;100.00
68193;BME280;55012;47.562;18.414;2023-06-22T09:31:10;98817.34;;;26.53;100.00
68193;BME280;55012;47.562;18.414;2023-06-22T09:33:36;98813.81;;;26.43;100.00
68193;BME280;55012;47.562;18.414;2023-06-22T09:36:04;98805.94;;;26.60;100.00
68193;BME280;55012;47.562;18.414;2023-06-22T09:38:30;98827.78;;;26.85;100.00
68193;BME280;55012;47.562;18.414;2023-06-22T09:40:56;98865.09;;;26.94;100.00
68193;BME280;55012;47.562;18.414;2023-06-22T09:43:21;98858.94;;;27.08;100.00
68193;BME280;55012;47.562;18.414;2023-06-22T09:45:46;98690.91;;;27.12;100.00
68193;BME280;55012;47.562;18.414;2023-06-22T09:48:12;98685.56;;;27.09;100.00
68193;BME280;55012;47.562;18.414;2023-06-22T09:50:37;98688.81;;;26.98;100.00
68193;BME280;55012;47.562;18.414;2023-06-22T09:53:03;98675.84;;;26.95;100.00
68193;BME280;55012;47.562;18.414;2023-06-22T09:55:28;98673.91;;;27.20;100.00
68193;BME280;55012;47.562;18.414;2023-06-22T09:57:54;98683.56;;;27.33;100.00
68193;BME280;55012;47.562;18.414;2023-06-22T10:00:21;98684.72;;;27.18;100.00
68193;BME280;55012;47.562;18.414;2023-06-22T10:02:47;98678.34;;;27.26;100.00
68193;BME280;55012;47.562;18.414;2023-06-22T10:05:13;98678.66;;;27.28;100.00
68193;BME280;55012;47.562;18.414;2023-06-22T10:07:39;98760.75;;;27.53;100.00
68193;BME280;55012;47.562;18.414;2023-06-22T10:10:08;98756.63;;;27.49;100.00
68193;BME280;55012;47.562;18.414;2023-06-22T10:12:33;98752.63;;;27.50;100.00
68193;BME280;55012;47.562;18.414;2023-06-22T10:14:59;98799.44;;;27.66;100.00
68193;BME280;55012;47.562;18.414;2023-06-22T10:17:25;98787.84;;;27.77;100.00
68193;BME280;55012;47.562;18.414;2023-06-22T10:19:50;98800.00;;;27.79;100.00
68193;BME280;55012;47.562;18.414;2023-06-22T10:22:16;98789.78;;;27.52;100.00
68193;BME280;55012;47.562;18.414;2023-06-22T10:24:41;98792.22;;;27.59;100.00
68193;BME280;55012;47.562;18.414;2023-06-22T10:27:12;98799.66;;;27.86;100.00
68193;BME280;55012;47.562;18.414;2023-06-22T10:29:38;98810.44;;;27.93;100.00
68193;BME280;55012;47.562;18.414;2023-06-22T10:32:04;98811.44;;;27.81;100.00
68193;BME280;55012;47.562;18.414;2023-06-22T10:34:30;98809.34;;;27.67;100.00
68193;BME280;55012;47.562;18.414;2023-06-22T10:36:55;98802.88;;;27.61;100.00
68193;BME280;55012;47.562;18.414;2023-06-22T10:39:21;98805.81;;;27.90;100.00
68193;BME280;55012;47.562;18.414;2023-06-22T10:41:46;98811.78;;;28.22;100.00
68193;BME280;55012;47.562;18.414;2023-06-22T10:44:12;98815.34;;;27.98;100.00
68193;BME280;55012;47.562;18.414;2023-06-22T10:46:38;98794.50;;;27.70;100.00
68193;BME280;55012;47.562;18.414;2023-06-22T10:49:04;98790.22;;;27.60;100.00
68193;BME280;55012;47.562;18.414;2023-06-22T10:51:29;98788.53;;;27.53;100.00
68193;BME280;55012;47.562;18.414;2023-06-22T10:53:56;98778.72;;;27.43;100.00
68193;BME280;55012;47.562;18.414;2023-06-22T10:56:22;98771.03;;;27.38;100.00
68193;BME280;55012;47.562;18.414;2023-06-22T10:58:47;98763.88;;;27.79;100.00
68193;BME280;55012;47.562;18.414;2023-06-22T11:01:13;98775.28;;;28.29;100.00
68193;BME280;55012;47.562;18.414;2023-06-22T11:03:38;98816.19;;;28.52;100.00
68193;BME280;55012;47.562;18.414;2023-06-22T11:06:04;98828.88;;;28.68;100.00
68193;BME280;55012;47.562;18.414;2023-06-22T11:08:29;98827.72;;;28.60;100.00
68193;BME280;55012;47.562;18.414;2023-06-22T11:10:54;98800.19;;;28.23;100.00
68193;BME280;55012;47.562;18.414;2023-06-22T11:13:20;98776.22;;;27.78;100.00
68193;BME280;55012;47.562;18.414;2023-06-22T11:15:45;98753.66;;;27.52;100.00
68193;BME280;55012;47.562;18.414;2023-06-22T11:18:11;98742.13;;;27.44;100.00
68193;BME280;55012;47.562;18.414;2023-06-22T11:20:36;98740.09;;;27.78;100.00
68193;BME280;55012;47.562;18.414;2023-06-22T11:23:07;98758.59;;;28.05;100.00
68193;BME280;55012;47.562;18.414;2023-06-22T11:25:33;98743.69;;;27.93;100.00
68193;BME280;55012;47.562;18.414;2023-06-22T11:28:02;98735.41;;;28.08;100.00
68193;BME280;55012;47.562;18.414;2023-06-22T11:30:28;98744.94;;;27.92;100.00
68193;BME280;55012;47.562;18.414;2023-06-22T11:32:53;98723.50;;;27.69;100.00
68193;BME280;55012;47.562;18.414;2023-06-22T11:35:18;98738.94;;;28.77;100.00
68193;BME280;55012;47.562;18.414;2023-06-22T11:37:44;98783.50;;;29.06;100.00
68193;BME280;55012;47.562;18.414;2023-06-22T11:40:10;98801.94;;;29.19;100.00
68193;BME280;55012;47.562;18.414;2023-06-22T11:42:35;98750.84;;;28.48;100.00
68193;BME280;55012;47.562;18.414;2023-06-22T11:45:02;98740.59;;;28.15;100.00
68193;BME280;55012;47.562;18.414;2023-06-22T11:47:29;98722.44;;;28.05;100.00
68193;BME280;55012;47.562;18.414;2023-06-22T11:49:54;98703.59;;;27.85;100.00
68193;BME280;55012;47.562;18.414;2023-06-22T11:52:20;98687.00;;;27.76;100.00
68193;BME280;55012;47.562;18.414;2023-06-22T11:54:45;98720.81;;;27.51;100.00
68193;BME280;55012;47.562;18.414;2023-06-22T11:57:11;98729.63;;;27.49;100.00
68193;BME280;55012;47.562;18.414;2023-06-22T11:59:36;98731.56;;;27.58;100.00
68193;BME280;55012;47.562;18.414;2023-06-22T12:02:01;98753.78;;;27.91;100.00
68193;BME280;55012;47.562;18.414;2023-06-22T12:04:27;98685.94;;;28.27;100.00
68193;BME280;55012;47.562;18.414;2023-06-22T12:06:52;98681.53;;;28.06;100.00
68193;BME280;55012;47.562;18.414;2023-06-22T12:09:18;98667.66;;;28.35;100.00
68193;BME280;55012;47.562;18.414;2023-06-22T12:11:43;98672.53;;;28.25;100.00
68193;BME280;55012;47.562;18.414;2023-06-22T12:14:09;98667.03;;;28.16;100.00
68193;BME280;55012;47.562;18.414;2023-06-22T12:16:34;98668.00;;;28.28;100.00
68193;BME280;55012;47.562;18.414;2023-06-22T12:19:00;98683.38;;;28.68;100.00
68193;BME280;55012;47.562;18.414;2023-06-22T12:21:25;98737.97;;;29.09;100.00
68193;BME280;55012;47.562;18.414;2023-06-22T12:23:51;98734.91;;;28.78;100.00
68193;BME280;55012;47.562;18.414;2023-06-22T12:26:16;98707.88;;;28.64;100.00
68193;BME280;55012;47.562;18.414;2023-06-22T12:28:42;98722.31;;;29.12;100.00
68193;BME280;55012;47.562;18.414;2023-06-22T12:31:07;98746.28;;;29.39;100.00
68193;BME280;55012;47.562;18.414;2023-06-22T12:33:32;98732.72;;;28.97;100.00
68193;BME280;55012;47.562;18.414;2023-06-22T12:35:58;98703.81;;;28.50;100.00
68193;BME280;55012;47.562;18.414;2023-06-22T12:38:23;98701.31;;;28.67;100.00
68193;BME280;55012;47.562;18.414;2023-06-22T12:40:51;98725.19;;;29.53;100.00
68193;BME280;55012;47.562;18.414;2023-06-22T12:43:17;98793.00;;;30.66;100.00